Time;durP1;ratioP1;P1;durP2;ratioP2;P2;SDS_P1;SDS_P2;PMS_P1;PMS_P2;Temp;Humidity;BMP_temperature;BMP_pressure;BME280_temperature;BME280_humidity;BME280_pressure;Samples;Min_cycle;Max_cycle;Signal;HPM_P1;HPM_P2
2021/12/31 00:02:28;;;;;;;8.60;4.65;;;14.10;99.90;;;;;;6166078;23;20001;-92
2021/12/31 00:04:56;;;;;;;10.02;4.50;;;14.10;99.90;;;;;;6155961;23;20016;-92
2021/12/31 00:07:23;;;;;;;9.45;4.85;;;14.00;99.90;;;;;;6182924;23;20458;-91
2021/12/31 00:09:58;;;;;;;8.43;4.35;;;14.10;99.90;;;;;;6185385;23;20032;-93
2021/12/31 00:12:24;;;;;;;10.30;4.70;;;14.10;99.90;;;;;;6166056;23;20034;-92
2021/12/31 00:14:52;;;;;;;8.65;4.35;;;14.00;99.90;;;;;;6162304;23;20005;-92
2021/12/31 00:17:22;;;;;;;10.02;4.45;;;14.00;99.90;;;;;;6162059;23;20013;-92
2021/12/31 00:19:57;;;;;;;7.90;4.00;;;14.00;99.90;;;;;;6162347;23;20001;-91
2021/12/31 00:25:07;;;;;;;8.68;3.88;;;14.00;99.90;;;;;;6200481;23;20009;-90
2021/12/31 00:27:36;;;;;;;6.45;3.90;;;14.00;99.90;;;;;;6161510;23;20016;-91
2021/12/31 00:30:05;;;;;;;8.88;4.07;;;14.00;99.90;;;;;;6162953;23;20009;-90
2021/12/31 00:32:33;;;;;;;10.10;3.78;;;14.00;99.90;;;;;;6162132;23;20406;-91
2021/12/31 00:34:59;;;;;;;9.27;4.10;;;14.00;99.90;;;;;;6112673;23;20009;-91
2021/12/31 00:37:30;;;;;;;8.52;3.58;;;14.00;99.90;;;;;;6161192;23;19997;-91
2021/12/31 00:39:58;;;;;;;7.90;3.17;;;14.10;99.90;;;;;;6162290;23;20020;-90
2021/12/31 00:42:36;;;;;;;9.98;4.15;;;14.00;99.90;;;;;;6160809;23;20013;-92
2021/12/31 00:45:06;;;;;;;7.85;3.30;;;14.00;99.90;;;;;;6161081;23;20055;-90
2021/12/31 00:47:34;;;;;;;8.00;3.20;;;14.00;99.90;;;;;;6137546;23;20015;-91
2021/12/31 00:50:04;;;;;;;9.18;3.45;;;14.00;99.90;;;;;;6163583;23;20009;-92
2021/12/31 00:52:34;;;;;;;7.60;3.28;;;14.10;99.90;;;;;;6165577;23;20021;-91
2021/12/31 00:55:05;;;;;;;8.00;2.95;;;14.10;99.90;;;;;;6163420;23;19997;-90
2021/12/31 00:57:36;;;;;;;6.63;3.05;;;14.10;99.90;;;;;;6163216;23;20000;-90
2021/12/31 01:00:09;;;;;;;6.05;2.55;;;14.10;99.90;;;;;;6161624;23;20009;-90
2021/12/31 01:02:43;;;;;;;6.15;3.10;;;14.10;99.90;;;;;;6187527;23;20055;-93
2021/12/31 01:05:11;;;;;;;7.95;2.83;;;14.10;99.90;;;;;;6137345;23;20500;-92
2021/12/31 01:07:49;;;;;;;7.78;2.88;;;14.00;99.90;;;;;;6160837;23;20040;-93
2021/12/31 01:10:22;;;;;;;9.00;3.20;;;14.00;99.90;;;;;;6179261;23;20013;-90
2021/12/31 01:12:51;;;;;;;5.53;2.67;;;14.00;99.90;;;;;;6161518;23;20333;-92
2021/12/31 01:15:22;;;;;;;10.45;3.10;;;14.00;99.90;;;;;;6161210;23;20061;-90
2021/12/31 01:20:21;;;;;;;8.88;2.95;;;14.00;99.90;;;;;;6188156;23;20016;-93
2021/12/31 01:22:59;;;;;;;8.90;2.92;;;14.00;99.90;;;;;;6187709;23;20004;-94
2021/12/31 01:25:30;;;;;;;9.05;2.40;;;14.10;99.90;;;;;;6154229;23;20009;-90
2021/12/31 01:28:01;;;;;;;6.25;2.72;;;14.00;99.90;;;;;;6161666;23;20009;-91
2021/12/31 01:30:26;;;;;;;6.50;2.85;;;14.10;99.90;;;;;;6161400;23;20008;-90
2021/12/31 01:32:55;;;;;;;7.60;3.30;;;14.00;99.90;;;;;;6187909;23;20484;-92
2021/12/31 01:35:49;;;;;;;7.28;2.70;;;14.00;99.90;;;;;;6161685;23;20009;-93
2021/12/31 01:38:17;;;;;;;5.28;2.40;;;14.00;99.90;;;;;;6161632;23;20005;-91
2021/12/31 01:40:49;;;;;;;5.63;2.55;;;14.00;99.90;;;;;;6187907;23;20029;-92
2021/12/31 01:43:19;;;;;;;4.30;2.40;;;14.00;99.90;;;;;;6140879;23;20001;-90
2021/12/31 01:46:11;;;;;;;4.90;2.17;;;14.00;99.90;;;;;;6162408;23;20381;-91
2021/12/31 01:48:59;;;;;;;5.68;2.30;;;14.00;99.90;;;;;;6204928;23;20040;-92
2021/12/31 01:51:27;;;;;;;7.65;2.55;;;14.00;99.90;;;;;;6183866;23;20020;-91
2021/12/31 01:53:55;;;;;;;6.88;2.28;;;14.00;99.90;;;;;;6178092;23;20001;-91
2021/12/31 01:56:35;;;;;;;4.85;2.45;;;14.00;99.90;;;;;;6188195;23;20005;-91
2021/12/31 01:59:02;;;;;;;6.10;2.30;;;14.00;99.90;;;;;;6162170;23;20005;-93
2021/12/31 02:01:30;;;;;;;7.18;2.08;;;14.00;99.90;;;;;;6112382;23;20005;-94
2021/12/31 02:03:56;;;;;;;5.38;2.17;;;14.00;99.90;;;;;;6162007;23;20012;-91
2021/12/31 02:06:24;;;;;;;7.85;2.60;;;14.10;99.90;;;;;;6161707;23;19997;-93
2021/12/31 02:08:55;;;;;;;6.53;2.20;;;14.10;99.90;;;;;;6163511;23;20080;-91
2021/12/31 02:11:24;;;;;;;6.65;2.20;;;14.10;99.90;;;;;;6171456;23;20005;-91
2021/12/31 02:13:51;;;;;;;5.53;2.00;;;14.10;99.90;;;;;;6166895;23;20032;-91
2021/12/31 02:16:26;;;;;;;5.47;2.10;;;14.10;99.90;;;;;;6137140;23;20005;-92
2021/12/31 02:18:58;;;;;;;6.40;2.63;;;14.10;99.90;;;;;;6139124;23;20009;-93
2021/12/31 02:21:24;;;;;;;5.03;2.33;;;14.10;99.90;;;;;;6137039;23;20001;-92
2021/12/31 02:24:01;;;;;;;6.25;2.30;;;14.10;99.90;;;;;;6187161;23;20084;-93
2021/12/31 02:26:28;;;;;;;5.97;2.05;;;14.10;99.90;;;;;;6161835;23;20413;-91
2021/12/31 02:28:54;;;;;;;6.60;2.38;;;14.10;99.90;;;;;;6161133;23;20016;-91
2021/12/31 02:31:29;;;;;;;7.18;1.92;;;14.10;99.90;;;;;;6161864;23;20334;-92
2021/12/31 02:34:01;;;;;;;4.60;1.98;;;14.10;99.90;;;;;;6161849;23;20001;-93
2021/12/31 02:36:28;;;;;;;7.43;2.10;;;14.20;99.90;;;;;;6137293;23;20013;-94
2021/12/31 02:38:54;;;;;;;5.95;2.08;;;14.20;99.90;;;;;;6158090;23;20020;-93
2021/12/31 02:41:22;;;;;;;8.75;1.90;;;14.20;99.90;;;;;;6161210;23;20009;-92
2021/12/31 02:43:51;;;;;;;4.22;2.00;;;14.20;99.90;;;;;;6136354;23;20009;-91
2021/12/31 02:46:23;;;;;;;4.00;2.10;;;14.20;99.90;;;;;;6137737;23;20041;-92
2021/12/31 02:48:56;;;;;;;5.97;2.05;;;14.20;99.90;;;;;;6193461;23;20009;-93
2021/12/31 02:51:26;;;;;;;4.97;1.95;;;14.20;99.90;;;;;;6165607;23;20080;-94
2021/12/31 02:53:56;;;;;;;5.28;2.10;;;14.20;99.90;;;;;;6186937;23;20051;-93
2021/12/31 02:56:25;;;;;;;4.85;1.70;;;14.20;99.90;;;;;;6137122;23;20005;-92
2021/12/31 02:58:55;;;;;;;6.05;2.42;;;14.20;99.90;;;;;;6112673;23;20100;-93
2021/12/31 03:01:22;;;;;;;4.95;1.73;;;14.20;99.90;;;;;;6161690;23;20057;-92
2021/12/31 03:03:51;;;;;;;6.18;1.98;;;14.20;99.90;;;;;;6163394;23;20067;-91
2021/12/31 03:06:17;;;;;;;4.82;1.80;;;14.20;99.90;;;;;;6116319;23;20036;-90
2021/12/31 03:08:48;;;;;;;5.40;2.28;;;14.20;99.90;;;;;;6196137;23;20005;-91
2021/12/31 03:11:29;;;;;;;8.13;2.17;;;14.20;99.90;;;;;;6137261;23;20015;-92
2021/12/31 03:14:01;;;;;;;4.78;2.30;;;14.20;99.90;;;;;;6161033;23;20021;-91
2021/12/31 03:16:31;;;;;;;5.65;1.60;;;14.20;99.90;;;;;;6164991;23;20070;-91
2021/12/31 03:18:57;;;;;;;5.20;1.90;;;14.20;99.90;;;;;;6163408;23;20028;-92
2021/12/31 03:21:23;;;;;;;3.17;1.42;;;14.10;99.90;;;;;;6187254;23;20076;-90
2021/12/31 03:23:52;;;;;;;3.72;1.50;;;14.20;99.90;;;;;;6161043;23;20036;-90
2021/12/31 03:26:34;;;;;;;4.97;1.58;;;14.20;99.90;;;;;;6160636;23;20434;-90
2021/12/31 03:29:01;;;;;;;6.13;1.83;;;14.20;99.90;;;;;;6136399;23;20013;-90
2021/12/31 03:31:35;;;;;;;4.82;1.77;;;14.20;99.90;;;;;;6135924;23;20002;-91
2021/12/31 03:34:02;;;;;;;5.82;2.08;;;14.20;99.90;;;;;;6137172;23;20016;-90
2021/12/31 03:36:31;;;;;;;5.03;2.15;;;14.20;99.90;;;;;;6161569;23;20001;-92
2021/12/31 03:38:59;;;;;;;4.38;1.55;;;14.20;99.90;;;;;;6190602;23;20065;-90
2021/12/31 03:41:29;;;;;;;4.65;1.83;;;14.20;99.90;;;;;;6208795;23;20001;-90
2021/12/31 03:43:56;;;;;;;5.13;1.92;;;14.20;99.90;;;;;;6157893;23;20039;-91
2021/12/31 03:46:25;;;;;;;5.28;1.67;;;14.20;99.90;;;;;;6165209;23;20051;-90
2021/12/31 03:48:58;;;;;;;6.40;2.38;;;14.20;99.90;;;;;;6164053;23;20541;-91
2021/12/31 03:51:25;;;;;;;4.72;1.67;;;14.20;99.90;;;;;;6189647;23;20012;-90
2021/12/31 03:53:52;;;;;;;5.50;1.88;;;14.20;99.90;;;;;;6164559;23;20426;-90
2021/12/31 03:56:21;;;;;;;4.93;2.20;;;14.10;99.90;;;;;;6192069;23;20072;-93
2021/12/31 03:58:48;;;;;;;5.35;2.45;;;14.10;99.90;;;;;;6164101;23;20005;-92
2021/12/31 04:01:14;;;;;;;5.15;2.20;;;14.20;99.90;;;;;;6162213;23;20001;-90
2021/12/31 04:03:40;;;;;;;6.32;2.05;;;14.10;99.90;;;;;;6162224;23;20096;-88
2021/12/31 04:06:06;;;;;;;6.20;2.05;;;14.10;99.90;;;;;;6161419;23;20456;-89
2021/12/31 04:08:37;;;;;;;6.40;2.42;;;14.20;99.90;;;;;;6137693;23;20100;-90
2021/12/31 04:11:05;;;;;;;6.05;2.35;;;14.20;99.90;;;;;;6138774;23;20094;-90
2021/12/31 04:13:33;;;;;;;8.35;2.40;;;14.10;99.90;;;;;;6137438;23;20080;-89
2021/12/31 04:16:02;;;;;;;4.55;1.70;;;14.10;99.90;;;;;;6161020;23;20430;-89
2021/12/31 04:18:51;;;;;;;6.82;1.90;;;14.10;99.90;;;;;;6137437;23;20015;-89
2021/12/31 04:21:26;;;;;;;4.25;2.05;;;14.10;99.90;;;;;;6188021;23;20001;-90
2021/12/31 04:24:08;;;;;;;4.13;1.60;;;14.10;99.90;;;;;;6162270;23;20005;-91
2021/12/31 04:26:38;;;;;;;4.10;1.85;;;14.10;99.90;;;;;;6160932;23;20060;-90
2021/12/31 04:29:03;;;;;;;5.28;2.00;;;14.20;99.90;;;;;;6137225;23;20100;-90
2021/12/31 04:31:34;;;;;;;4.55;2.03;;;14.10;99.90;;;;;;6188600;23;20022;-91
2021/12/31 04:34:06;;;;;;;3.83;1.55;;;14.10;99.90;;;;;;6187974;23;20306;-89
2021/12/31 04:36:36;;;;;;;6.55;2.10;;;14.10;99.90;;;;;;6138324;23;20036;-90
2021/12/31 04:39:02;;;;;;;5.97;2.17;;;14.00;99.90;;;;;;6137978;23;20016;-89
2021/12/31 04:41:28;;;;;;;4.50;2.10;;;14.00;99.90;;;;;;6138020;23;20063;-89
2021/12/31 04:43:54;;;;;;;5.43;2.15;;;14.00;99.90;;;;;;6161082;23;20009;-90
2021/12/31 04:46:20;;;;;;;9.60;2.30;;;14.00;99.90;;;;;;6161314;23;20059;-89
2021/12/31 04:48:46;;;;;;;7.00;2.17;;;14.00;99.90;;;;;;6162666;23;20017;-90
2021/12/31 04:51:13;;;;;;;5.57;2.33;;;14.00;99.90;;;;;;6142510;23;20009;-90
2021/12/31 04:53:40;;;;;;;5.40;2.13;;;14.00;99.90;;;;;;6137979;23;20013;-89
2021/12/31 04:56:05;;;;;;;7.97;2.80;;;14.00;99.90;;;;;;6161985;23;20028;-89
2021/12/31 04:58:31;;;;;;;6.43;2.38;;;14.00;99.90;;;;;;6161789;23;20004;-90
2021/12/31 05:00:58;;;;;;;5.53;2.38;;;14.00;99.90;;;;;;6136026;23;20037;-89
2021/12/31 05:03:24;;;;;;;7.50;2.30;;;14.00;99.90;;;;;;6137971;23;20092;-89
2021/12/31 05:05:53;;;;;;;5.93;2.30;;;14.00;99.90;;;;;;6162123;23;20084;-90
2021/12/31 05:08:31;;;;;;;9.70;3.45;;;14.00;99.90;;;;;;6188386;23;20303;-90
2021/12/31 05:10:57;;;;;;;4.65;2.05;;;13.90;99.90;;;;;;6187573;23;20411;-90
2021/12/31 05:13:24;;;;;;;6.20;2.67;;;13.90;99.90;;;;;;6186976;23;20085;-90
2021/12/31 05:15:52;;;;;;;4.90;2.05;;;13.90;99.90;;;;;;6162194;23;20040;-88
2021/12/31 05:18:18;;;;;;;7.28;2.65;;;13.90;99.90;;;;;;6161657;23;19997;-88
2021/12/31 05:20:44;;;;;;;5.57;2.35;;;13.90;99.90;;;;;;6137845;23;20005;-89
2021/12/31 05:23:10;;;;;;;7.90;2.30;;;14.00;99.90;;;;;;6164152;23;20005;-88
2021/12/31 05:25:36;;;;;;;4.78;2.30;;;13.90;99.90;;;;;;6162643;23;20112;-88
2021/12/31 05:28:04;;;;;;;5.40;2.42;;;13.90;99.90;;;;;;6163038;23;20005;-91
2021/12/31 05:30:30;;;;;;;4.88;2.53;;;13.90;99.90;;;;;;6170420;23;20028;-89
2021/12/31 05:32:56;;;;;;;5.55;2.42;;;13.90;99.90;;;;;;6172757;23;20005;-89
2021/12/31 05:35:21;;;;;;;5.97;2.65;;;13.90;99.90;;;;;;6176731;23;20011;-93
2021/12/31 05:37:47;;;;;;;5.38;2.83;;;13.90;99.90;;;;;;6138256;23;20005;-90
2021/12/31 05:40:14;;;;;;;5.25;2.50;;;13.90;99.90;;;;;;6161746;23;20482;-89
2021/12/31 05:42:41;;;;;;;5.55;2.75;;;13.80;99.90;;;;;;6161823;23;20095;-90
2021/12/31 05:45:09;;;;;;;9.43;3.17;;;13.80;99.90;;;;;;6161130;23;20047;-89
2021/12/31 05:47:35;;;;;;;6.70;2.78;;;13.80;99.90;;;;;;6161322;23;20016;-89
2021/12/31 05:50:05;;;;;;;5.18;2.67;;;13.80;99.90;;;;;;6160913;23;20005;-89
2021/12/31 05:52:31;;;;;;;5.00;2.45;;;13.80;99.90;;;;;;6187301;23;20001;-88
2021/12/31 05:54:58;;;;;;;4.05;2.60;;;13.80;99.90;;;;;;6187196;23;20005;-89
2021/12/31 05:57:27;;;;;;;4.60;2.63;;;13.80;99.90;;;;;;6186789;23;20080;-89
2021/12/31 06:00:05;;;;;;;5.68;2.47;;;13.80;99.90;;;;;;6187377;23;19997;-90
2021/12/31 06:02:31;;;;;;;6.47;2.75;;;13.80;99.90;;;;;;6159740;23;20005;-93
2021/12/31 06:04:58;;;;;;;5.93;2.60;;;13.80;99.90;;;;;;6160640;23;20005;-89
2021/12/31 06:07:24;;;;;;;4.30;2.83;;;13.80;99.90;;;;;;6161110;23;20059;-90
2021/12/31 06:09:53;;;;;;;6.72;2.88;;;13.80;99.90;;;;;;6187570;23;19997;-89
2021/12/31 06:12:19;;;;;;;5.10;2.50;;;13.80;99.90;;;;;;6188119;23;20001;-90
2021/12/31 06:14:53;;;;;;;6.07;2.90;;;13.80;99.90;;;;;;6188611;23;20016;-91
2021/12/31 06:17:24;;;;;;;6.10;2.92;;;13.80;99.90;;;;;;6163266;23;20005;-90
2021/12/31 06:19:53;;;;;;;8.55;2.60;;;13.70;99.90;;;;;;6162056;23;20449;-89
2021/12/31 06:22:20;;;;;;;7.65;2.88;;;13.70;99.90;;;;;;6163278;23;20005;-89
2021/12/31 06:24:50;;;;;;;7.57;3.13;;;13.80;99.90;;;;;;6169943;23;20005;-90
2021/12/31 06:27:25;;;;;;;5.22;2.45;;;13.80;99.90;;;;;;6137227;23;20009;-90
2021/12/31 06:29:51;;;;;;;5.32;2.70;;;13.70;99.90;;;;;;6183958;23;20001;-89
2021/12/31 06:32:17;;;;;;;6.28;2.67;;;13.70;99.90;;;;;;6161751;23;20012;-90
2021/12/31 06:34:43;;;;;;;5.53;2.65;;;13.80;99.90;;;;;;6161286;23;20091;-88
2021/12/31 06:37:10;;;;;;;6.00;2.80;;;13.70;99.90;;;;;;6159777;23;20005;-89
2021/12/31 06:39:41;;;;;;;5.05;2.60;;;13.70;99.90;;;;;;6160320;23;20013;-88
2021/12/31 06:42:09;;;;;;;5.68;2.70;;;13.60;99.90;;;;;;6160552;23;20028;-89
2021/12/31 06:44:36;;;;;;;8.30;2.85;;;13.70;99.90;;;;;;6135774;23;20045;-89
2021/12/31 06:47:05;;;;;;;6.43;2.45;;;13.60;99.90;;;;;;6186873;23;20005;-91
2021/12/31 06:49:31;;;;;;;6.50;2.70;;;13.50;99.90;;;;;;6161014;23;20011;-89
2021/12/31 06:51:57;;;;;;;5.70;2.50;;;13.50;99.90;;;;;;6159723;23;20032;-89
2021/12/31 06:54:23;;;;;;;6.88;3.05;;;13.50;99.90;;;;;;6160656;23;20005;-90
2021/12/31 06:56:49;;;;;;;6.50;2.60;;;13.40;99.90;;;;;;6159279;23;20492;-89
2021/12/31 06:59:17;;;;;;;6.72;2.92;;;13.30;99.90;;;;;;6190104;23;20009;-89
2021/12/31 07:01:45;;;;;;;5.65;2.35;;;13.30;99.90;;;;;;6187330;23;20027;-91
2021/12/31 07:04:17;;;;;;;4.57;2.28;;;13.20;99.90;;;;;;6187424;23;20001;-88
2021/12/31 07:06:46;;;;;;;5.20;2.58;;;13.20;99.90;;;;;;6158599;23;20005;-89
2021/12/31 07:09:15;;;;;;;5.93;2.47;;;13.10;99.90;;;;;;6186611;23;20437;-88
2021/12/31 07:11:41;;;;;;;6.63;2.38;;;13.00;99.90;;;;;;6186211;23;20012;-89
2021/12/31 07:14:07;;;;;;;6.28;2.70;;;13.00;99.90;;;;;;6156292;23;20009;-89
2021/12/31 07:16:40;;;;;;;7.55;2.72;;;13.00;99.90;;;;;;6188382;23;20008;-91
2021/12/31 07:19:05;;;;;;;6.80;2.70;;;13.00;99.90;;;;;;6188980;23;20005;-88
2021/12/31 07:21:40;;;;;;;5.65;2.70;;;13.00;99.90;;;;;;6191034;23;20004;-89
2021/12/31 07:24:23;;;;;;;5.13;2.70;;;13.00;99.90;;;;;;6200713;23;20009;-89
2021/12/31 07:26:49;;;;;;;5.93;2.17;;;13.00;99.90;;;;;;6209819;23;20056;-88
2021/12/31 07:29:18;;;;;;;5.25;2.50;;;13.00;99.90;;;;;;6209102;23;20056;-89
2021/12/31 07:31:46;;;;;;;6.07;2.78;;;13.00;99.90;;;;;;6201359;23;20001;-88
2021/12/31 07:34:22;;;;;;;4.95;2.42;;;13.00;99.90;;;;;;6140172;23;20009;-91
2021/12/31 07:36:48;;;;;;;6.30;2.75;;;12.90;99.90;;;;;;6159892;23;20013;-92
2021/12/31 07:39:24;;;;;;;4.47;2.40;;;12.90;99.90;;;;;;6160039;23;20325;-89
2021/12/31 07:41:51;;;;;;;5.53;2.92;;;12.90;99.90;;;;;;6161107;23;20029;-89
2021/12/31 07:44:21;;;;;;;6.63;3.40;;;12.90;99.90;;;;;;6186369;23;20071;-91
2021/12/31 07:46:52;;;;;;;4.18;2.72;;;12.90;99.90;;;;;;6187028;23;20080;-87
2021/12/31 07:49:18;;;;;;;5.28;2.83;;;12.90;99.90;;;;;;6186980;23;20004;-90
2021/12/31 07:51:47;;;;;;;5.43;3.22;;;12.90;99.90;;;;;;6162562;23;20060;-90
2021/12/31 07:54:14;;;;;;;8.77;2.80;;;12.80;99.90;;;;;;6185782;23;20092;-89
2021/12/31 07:56:47;;;;;;;5.93;3.15;;;12.80;99.90;;;;;;6159447;23;20430;-91
2021/12/31 07:59:19;;;;;;;8.35;3.20;;;12.80;99.90;;;;;;6185483;23;20057;-90
2021/12/31 08:01:45;;;;;;;5.63;2.83;;;12.90;99.90;;;;;;6161109;23;20088;-90
2021/12/31 08:04:16;;;;;;;5.40;2.95;;;12.80;99.90;;;;;;6160073;23;20029;-91
2021/12/31 08:06:54;;;;;;;6.63;3.33;;;12.80;99.90;;;;;;6186293;23;20430;-93
2021/12/31 08:09:20;;;;;;;5.68;3.20;;;12.80;99.90;;;;;;6185713;23;20005;-91
2021/12/31 08:11:51;;;;;;;6.60;3.13;;;12.80;99.90;;;;;;6161244;23;20089;-92
2021/12/31 08:14:17;;;;;;;5.07;2.70;;;12.80;99.90;;;;;;6159726;23;20005;-93
2021/12/31 08:16:48;;;;;;;6.32;3.05;;;12.80;99.90;;;;;;6157501;23;20464;-91
2021/12/31 08:19:16;;;;;;;6.95;3.00;;;12.70;99.90;;;;;;6160223;23;20009;-94
2021/12/31 08:21:49;;;;;;;8.38;3.00;;;12.70;99.90;;;;;;6158270;23;20425;-92
2021/12/31 08:24:25;;;;;;;4.97;2.60;;;12.80;99.90;;;;;;6188044;23;20459;-93
2021/12/31 08:26:54;;;;;;;7.13;3.17;;;12.70;99.90;;;;;;6162137;23;20009;-90
2021/12/31 08:29:23;;;;;;;4.63;2.40;;;12.70;99.90;;;;;;6174576;23;20008;-89
2021/12/31 08:31:52;;;;;;;6.18;2.42;;;12.70;99.90;;;;;;6191609;23;19997;-90
2021/12/31 08:34:18;;;;;;;4.50;2.25;;;12.80;99.90;;;;;;6161403;23;20005;-89
2021/12/31 08:36:44;;;;;;;6.63;2.60;;;12.70;99.90;;;;;;6186950;23;20031;-91
2021/12/31 08:39:13;;;;;;;6.65;2.63;;;12.70;99.90;;;;;;6160050;23;20005;-91
2021/12/31 08:41:40;;;;;;;5.45;2.75;;;12.70;99.90;;;;;;6159032;23;20564;-91
2021/12/31 08:44:08;;;;;;;5.57;3.03;;;12.80;99.90;;;;;;6160237;23;20063;-90
2021/12/31 08:46:41;;;;;;;4.60;2.50;;;12.80;99.90;;;;;;6159681;23;20067;-89
2021/12/31 08:49:10;;;;;;;4.65;2.45;;;12.80;99.90;;;;;;6160122;23;20001;-89
2021/12/31 08:51:37;;;;;;;7.57;3.20;;;12.80;99.90;;;;;;6159285;23;20017;-88
2021/12/31 08:54:09;;;;;;;5.45;2.97;;;12.80;99.90;;;;;;6158197;23;20136;-92
2021/12/31 08:56:36;;;;;;;;;;;12.80;99.90;;;;;;6185944;23;20009;-90
2021/12/31 08:59:08;;;;;;;6.82;2.83;;;12.80;99.90;;;;;;6158196;23;19919;-90
2021/12/31 09:01:34;;;;;;;5.55;2.70;;;12.80;99.90;;;;;;6159155;23;20040;-89
2021/12/31 09:04:04;;;;;;;5.60;3.17;;;12.80;99.90;;;;;;6158992;23;20019;-92
2021/12/31 09:06:37;;;;;;;3.75;2.40;;;12.80;99.90;;;;;;6157612;23;20009;-90
2021/12/31 09:09:06;;;;;;;6.18;2.88;;;12.80;99.90;;;;;;6186529;23;20005;-91
2021/12/31 09:11:36;;;;;;;6.07;2.88;;;12.80;99.90;;;;;;6159844;23;20012;-92
2021/12/31 09:14:02;;;;;;;6.88;2.50;;;12.80;99.90;;;;;;6189441;23;20001;-92
2021/12/31 09:16:37;;;;;;;5.90;2.92;;;12.90;99.90;;;;;;6200742;22;19989;-89
2021/12/31 09:19:06;;;;;;;6.43;2.60;;;12.90;99.90;;;;;;6186579;22;19992;-90
2021/12/31 09:21:32;;;;;;;5.63;2.58;;;12.90;99.90;;;;;;6174487;23;20013;-92
2021/12/31 09:23:59;;;;;;;5.05;2.53;;;12.90;99.90;;;;;;6160872;23;20155;-89
2021/12/31 09:26:26;;;;;;;5.72;2.80;;;13.00;99.90;;;;;;6160692;23;20005;-92
2021/12/31 09:28:54;;;;;;;4.32;2.38;;;13.00;99.90;;;;;;6159977;23;20001;-92
2021/12/31 09:31:20;;;;;;;7.75;3.10;;;13.00;99.90;;;;;;6186944;23;20005;-91
2021/12/31 09:33:49;;;;;;;3.97;2.08;;;13.00;99.90;;;;;;6166229;23;20518;-93
2021/12/31 09:36:16;;;;;;;3.92;2.20;;;13.00;99.90;;;;;;6192304;23;20013;-90
2021/12/31 09:38:43;;;;;;;4.05;2.15;;;13.00;99.90;;;;;;6190105;23;20430;-93
2021/12/31 09:41:09;;;;;;;5.80;2.58;;;13.00;99.90;;;;;;6184372;23;20484;-92
2021/12/31 09:43:38;;;;;;;5.07;2.70;;;13.00;99.90;;;;;;6157034;23;20005;-93
2021/12/31 09:46:13;;;;;;;4.60;2.40;;;13.00;99.90;;;;;;6156141;23;20079;-93
2021/12/31 09:48:42;;;;;;;5.82;2.67;;;13.00;99.90;;;;;;6158986;23;20080;-92
2021/12/31 09:51:08;;;;;;;6.28;2.70;;;13.10;99.90;;;;;;6159554;23;20013;-91
2021/12/31 09:53:37;;;;;;;6.40;2.72;;;13.10;99.90;;;;;;6185528;23;20437;-92
2021/12/31 09:56:08;;;;;;;4.68;2.65;;;13.10;99.90;;;;;;6159294;23;20012;-92
2021/12/31 09:58:35;;;;;;;6.05;3.05;;;13.10;99.90;;;;;;6159230;23;20139;-93
2021/12/31 10:01:02;;;;;;;4.72;2.15;;;13.20;99.90;;;;;;6157978;23;20004;-92
2021/12/31 10:03:33;;;;;;;3.97;2.10;;;13.20;99.90;;;;;;6159732;23;20004;-93
2021/12/31 10:06:09;;;;;;;5.57;2.55;;;13.20;99.90;;;;;;6159823;23;20109;-90
2021/12/31 10:08:46;;;;;;;5.38;2.60;;;13.30;99.90;;;;;;6159626;23;20005;-90
2021/12/31 10:11:20;;;;;;;4.45;2.22;;;13.30;99.90;;;;;;6180480;23;20072;-91
2021/12/31 10:13:54;;;;;;;4.63;2.58;;;13.20;99.90;;;;;;6185677;23;20009;-90
2021/12/31 10:16:39;;;;;;;4.57;2.53;;;13.30;99.90;;;;;;6186415;23;20001;-90
2021/12/31 10:19:15;;;;;;;5.97;2.30;;;13.20;99.90;;;;;;6158879;23;20096;-92
2021/12/31 10:21:49;;;;;;;6.65;2.50;;;13.20;99.90;;;;;;6158772;23;20067;-91
2021/12/31 10:24:48;;;;;;;2.85;2.15;;;13.20;99.90;;;;;;6185225;23;20067;-92
2021/12/31 10:27:17;;;;;;;5.32;2.30;;;13.20;99.90;;;;;;6164730;23;20422;-91
2021/12/31 10:30:08;;;;;;;3.97;2.42;;;13.10;99.90;;;;;;6159605;23;20005;-90
2021/12/31 10:32:42;;;;;;;4.50;2.47;;;13.20;99.90;;;;;;6156574;23;20001;-89
2021/12/31 10:35:09;;;;;;;5.05;2.15;;;13.10;99.90;;;;;;6158931;23;20001;-90
2021/12/31 10:37:58;;;;;;;4.13;2.53;;;13.20;99.90;;;;;;6158619;23;20033;-90
2021/12/31 10:40:43;;;;;;;6.40;3.20;;;13.20;99.90;;;;;;6158899;23;20005;-90
2021/12/31 10:43:15;;;;;;;5.75;2.85;;;13.20;99.90;;;;;;6156063;23;20001;-91
2021/12/31 10:46:20;;;;;;;4.60;2.20;;;13.20;99.90;;;;;;6184584;23;20025;-89
2021/12/31 10:48:52;;;;;;;4.82;2.88;;;13.30;99.90;;;;;;6155542;23;20100;-90
2021/12/31 10:51:59;;;;;;;5.57;3.17;;;13.30;99.90;;;;;;6184898;23;20001;-90
2021/12/31 10:54:31;;;;;;;5.35;2.65;;;13.50;99.90;;;;;;6167612;23;20634;-92
2021/12/31 10:57:01;;;;;;;7.88;2.65;;;13.70;99.90;;;;;;6158679;23;20004;-91
2021/12/31 10:59:37;;;;;;;4.03;2.28;;;13.80;99.90;;;;;;6162606;23;19997;-92
2021/12/31 11:02:06;;;;;;;4.32;2.25;;;13.80;99.90;;;;;;6142240;23;20311;-93
2021/12/31 11:04:34;;;;;;;4.38;2.40;;;13.80;99.90;;;;;;6158348;23;20017;-91
2021/12/31 11:07:10;;;;;;;4.40;2.67;;;13.90;99.90;;;;;;6185314;23;20005;-93
2021/12/31 11:09:37;;;;;;;4.63;2.72;;;13.80;99.90;;;;;;6184422;23;20001;-92
2021/12/31 11:12:04;;;;;;;3.80;2.25;;;13.80;99.90;;;;;;6187493;23;20028;-90
2021/12/31 11:14:31;;;;;;;4.40;2.33;;;13.70;99.90;;;;;;6170617;23;20009;-91
2021/12/31 11:16:58;;;;;;;5.28;2.95;;;13.60;99.90;;;;;;6170050;23;20008;-90
2021/12/31 11:19:25;;;;;;;4.57;2.40;;;13.60;99.90;;;;;;6162889;23;20089;-91
2021/12/31 11:21:51;;;;;;;4.70;2.35;;;13.60;99.90;;;;;;6156219;23;20012;-91
2021/12/31 11:24:34;;;;;;;4.32;2.22;;;13.50;99.90;;;;;;6184006;23;20283;-91
2021/12/31 11:27:20;;;;;;;3.65;2.40;;;13.60;99.90;;;;;;6158144;23;20013;-90
2021/12/31 11:29:47;;;;;;;6.05;2.50;;;13.60;99.90;;;;;;6173655;23;20031;-91
2021/12/31 11:32:13;;;;;;;4.47;2.22;;;13.70;99.90;;;;;;6157018;23;20367;-93
2021/12/31 11:34:38;;;;;;;3.58;2.40;;;13.80;99.90;;;;;;6131685;23;20040;-92
2021/12/31 11:37:09;;;;;;;6.90;2.88;;;13.90;99.90;;;;;;6132915;23;20005;-90
2021/12/31 11:39:40;;;;;;;5.85;2.70;;;13.90;99.90;;;;;;6158955;23;20005;-90
2021/12/31 11:42:08;;;;;;;5.47;2.50;;;13.90;99.90;;;;;;6160161;23;20005;-92
2021/12/31 11:44:56;;;;;;;3.88;2.45;;;14.20;99.90;;;;;;6182835;23;20085;-92
2021/12/31 11:47:28;;;;;;;5.30;2.35;;;14.40;99.90;;;;;;6185241;23;20432;-90
2021/12/31 11:50:24;;;;;;;4.40;2.53;;;14.30;99.90;;;;;;6135598;23;20096;-92
2021/12/31 11:53:01;;;;;;;7.93;2.95;;;14.30;99.90;;;;;;6177899;23;20017;-92
2021/12/31 11:55:27;;;;;;;6.43;2.95;;;14.20;99.90;;;;;;6157740;23;20322;-90
2021/12/31 11:57:54;;;;;;;6.22;2.88;;;14.20;99.90;;;;;;6158350;23;20033;-91
2021/12/31 12:00:27;;;;;;;3.03;2.13;;;14.30;99.90;;;;;;6158359;23;20005;-91
2021/12/31 12:02:53;;;;;;;;;;;14.40;99.90;;;;;;6160467;23;20040;-92
2021/12/31 12:05:22;;;;;;;7.35;2.75;;;14.50;99.90;;;;;;6186427;23;19935;-90
2021/12/31 12:07:55;;;;;;;5.95;3.03;;;14.50;99.90;;;;;;6169874;23;20005;-89
2021/12/31 12:10:26;;;;;;;17.08;15.25;;;14.40;99.90;;;;;;6165987;23;20005;-91
2021/12/31 12:13:18;;;;;;;8.73;4.55;;;14.30;99.90;;;;;;6186466;23;20315;-91
2021/12/31 12:15:46;;;;;;;7.03;3.40;;;14.00;99.90;;;;;;6185505;23;20013;-92
2021/12/31 12:18:52;;;;;;;7.97;3.28;;;13.70;99.90;;;;;;6160081;23;20005;-91
2021/12/31 12:21:39;;;;;;;8.20;3.20;;;13.50;99.90;;;;;;6185883;23;20020;-90
2021/12/31 12:24:07;;;;;;;6.15;2.65;;;13.40;99.90;;;;;;6136141;23;20024;-92
2021/12/31 12:26:43;;;;;;;6.10;2.90;;;13.30;99.90;;;;;;6161696;23;20073;-89
2021/12/31 12:29:12;;;;;;;7.00;3.38;;;13.30;99.90;;;;;;6185395;23;19997;-91
2021/12/31 12:31:45;;;;;;;7.05;3.42;;;13.30;99.90;;;;;;6160097;23;20013;-90
2021/12/31 12:34:13;;;;;;;6.38;3.17;;;13.40;99.90;;;;;;6164930;23;20013;-91
2021/12/31 12:36:40;;;;;;;7.95;2.97;;;13.40;99.90;;;;;;6159416;23;20012;-90
2021/12/31 12:39:08;;;;;;;4.93;2.92;;;13.60;99.90;;;;;;6159396;23;20060;-89
2021/12/31 12:41:34;;;;;;;8.90;3.47;;;13.90;99.90;;;;;;6158727;23;20005;-87
2021/12/31 12:44:07;;;;;;;6.90;3.42;;;14.10;99.90;;;;;;6158474;23;20005;-87
2021/12/31 12:46:35;;;;;;;6.00;3.15;;;14.30;99.90;;;;;;6158959;23;20171;-90
2021/12/31 12:49:13;;;;;;;6.07;3.15;;;14.30;99.90;;;;;;6134670;23;20013;-90
2021/12/31 12:51:42;;;;;;;5.78;2.80;;;14.40;99.90;;;;;;6134545;23;20480;-88
2021/12/31 12:54:19;;;;;;;6.25;3.45;;;14.40;99.90;;;;;;6135448;23;20330;-90
2021/12/31 12:57:00;;;;;;;8.10;3.88;;;14.50;99.90;;;;;;6183629;23;20005;-90
2021/12/31 12:59:28;;;;;;;7.60;3.92;;;14.60;99.90;;;;;;6186568;23;20001;-88
2021/12/31 13:01:54;;;;;;;8.07;3.50;;;14.60;99.90;;;;;;6184693;23;19997;-89
2021/12/31 13:04:25;;;;;;;8.60;3.95;;;14.50;99.90;;;;;;6158436;23;20016;-89
2021/12/31 13:07:02;;;;;;;5.90;3.63;;;14.50;99.90;;;;;;6185248;23;19997;-89
2021/12/31 13:09:32;;;;;;;6.45;3.55;;;14.30;99.90;;;;;;6159421;23;20035;-89
2021/12/31 13:12:02;;;;;;;7.07;3.65;;;14.30;99.90;;;;;;6164585;23;20139;-88